Aviation Digital Data Service (ADDS)

Output produced by METARs form (2159 UTC 23 March 2017)
found at http://aviationweather.gov/adds/metars/
 
KBWI 232052Z 2321/2424 VRB04KT P6SM SCT200 
     FM241100 19005KT P6SM BKN080 
     FM241800 20009G16KT P6SM BKN070